^^
Datos históricos de la estación: Murcia-Puente Tocinos
Diario Informe para Abril 27, 2019 Unidades:  Ambas    Ingés   Métrico
Diario Semanal Mensual Anual
  Máxima: Mínima: Promedio:
Temperatura: 89.8 °F /  32.1 °C 75.9 °F /  24.4 °C 82.6 °F /  28.1 °C
Punto de rocio: 68.2 °F /  20.1 °C 59.2 °F /  15.1 °C 63.9 °F /  17.7 °C
Humedad: 73% 37.5% 55%
Velocidad viento: 17mph /  27.4km/h - 7.3mph /  11.8km/h
Racha viento: 30mph /  48.3km/h - -
Viento- - SE
Presión: 30 in /  1016.2 hPa 30 in /  1014.2 hPa -
Precipitación: 0 in /  0.0 mm    
 
 
Tabla de datos para Abril 27, 2019
Hora Temperatura Punto de rocio Presión Viento Velocidad viento Racha viento Humedad Intensidad lluvia(por hora) Nubes
00:04 77.4 °F /  25.2 °C 68 °F /  20 °C 30in /  1015.5hPa NNO 1.4mph /  2.2km/h 4.7mph /  7.6km/h 73% 0in /  0.0mm
00:09 77.4 °F /  25.2 °C 68 °F /  20 °C 30in /  1015.4hPa NO 1.6mph /  2.6km/h 5mph /  8km/h 73% 0in /  0.0mm
00:14 77.4 °F /  25.2 °C 68 °F /  20 °C 30in /  1015.4hPa NO 2mph /  3.2km/h 4mph /  6.4km/h 73% 0in /  0.0mm
00:19 77.4 °F /  25.2 °C 68 °F /  20 °C 30in /  1015.4hPa NO 1.2mph /  1.9km/h 3.6mph /  5.8km/h 73% 0in /  0.0mm
00:24 77.4 °F /  25.2 °C 68 °F /  20 °C 30in /  1015.3hPa Calm   4mph /  6.4km/h 73% 0in /  0.0mm
00:29 77.4 °F /  25.2 °C 68 °F /  20 °C 30in /  1015.3hPa ONO 0.7mph /  1.2km/h 4.6mph /  7.4km/h 73% 0in /  0.0mm
00:34 77.4 °F /  25.2 °C 68 °F /  20 °C 30in /  1015.3hPa NO 1.8mph /  2.9km/h 5mph /  8km/h 73% 0in /  0.0mm
00:39 77.4 °F /  25.2 °C 68 °F /  20 °C 30in /  1015.3hPa Oeste 1.8mph /  2.9km/h 3.5mph /  5.6km/h 73% 0in /  0.0mm
00:44 77.4 °F /  25.2 °C 68 °F /  20 °C 30in /  1015.3hPa Oeste 1.8mph /  2.9km/h 3.6mph /  5.8km/h 73% 0in /  0.0mm
00:49 77.4 °F /  25.2 °C 68 °F /  20 °C 30in /  1015.3hPa Oeste 1.8mph /  2.9km/h 4mph /  6.4km/h 73% 0in /  0.0mm
00:54 77.4 °F /  25.2 °C 68 °F /  20 °C 30in /  1015.3hPa Oeste 1.8mph /  2.9km/h 4.3mph /  6.9km/h 73% 0in /  0.0mm
00:59 77.4 °F /  25.2 °C 68 °F /  20 °C 30in /  1015.3hPa Oeste 1.8mph /  2.9km/h 5.8mph /  9.3km/h 73% 0in /  0.0mm
01:04 77.4 °F /  25.2 °C 68 °F /  20 °C 30in /  1015.3hPa ONO 1.8mph /  2.9km/h 6mph /  9.7km/h 73% 0in /  0.0mm
01:09 77.4 °F /  25.2 °C 68 °F /  20 °C 30in /  1015.2hPa ONO 1.9mph /  3km/h 5mph /  8km/h 73% 0in /  0.0mm
01:14 77.4 °F /  25.2 °C 68 °F /  20 °C 30in /  1015.2hPa Oeste 2mph /  3.2km/h 3.5mph /  5.6km/h 73% 0in /  0.0mm
01:19 77.5 °F /  25.3 °C 68.2 °F /  20.1 °C 30in /  1015.2hPa Oeste 1.7mph /  2.8km/h 3.5mph /  5.6km/h 73% 0in /  0.0mm
01:24 77.5 °F /  25.3 °C 68.2 °F /  20.1 °C 30in /  1015.1hPa Oeste 1.4mph /  2.2km/h 3.5mph /  5.6km/h 73% 0in /  0.0mm
01:29 77.5 °F /  25.3 °C 68.2 °F /  20.1 °C 30in /  1015.1hPa Oeste 1.4mph /  2.2km/h 3mph /  4.8km/h 73% 0in /  0.0mm
01:34 77.5 °F /  25.3 °C 68.2 °F /  20.1 °C 30in /  1015.1hPa Oeste 1.4mph /  2.2km/h 1mph /  1.6km/h 73% 0in /  0.0mm
01:39 77.5 °F /  25.3 °C 68.2 °F /  20.1 °C 30in /  1015.1hPa SSO 1.4mph /  2.2km/h 6.2mph /  10km/h 73% 0in /  0.0mm
01:44 77.4 °F /  25.2 °C 68 °F /  20 °C 30in /  1015.1hPa Sur 1.4mph /  2.2km/h 6mph /  9.7km/h 73% 0in /  0.0mm
01:49 77.2 °F /  25.1 °C 67.8 °F /  19.9 °C 30in /  1015.1hPa Sur 2.4mph /  3.9km/h 6.9mph /  11.1km/h 73% 0in /  0.0mm
01:54 77.2 °F /  25.1 °C 67.8 °F /  19.9 °C 30in /  1014.9hPa Sur 4mph /  6.5km/h 8.1mph /  13km/h 73% 0in /  0.0mm
01:59 77 °F /  25 °C 67.6 °F /  19.8 °C 30in /  1014.9hPa Sur 4.5mph /  7.3km/h 8.1mph /  13km/h 73% 0in /  0.0mm
02:04 77 °F /  25 °C 67.6 °F /  19.8 °C 30in /  1014.9hPa SSE 5.2mph /  8.4km/h 8.1mph /  13km/h 73% 0in /  0.0mm
02:09 76.8 °F /  24.9 °C 67.5 °F /  19.7 °C 30in /  1014.9hPa SO 5mph /  8km/h 9.2mph /  14.8km/h 73% 0in /  0.0mm
02:14 77 °F /  25 °C 67.6 °F /  19.8 °C 30in /  1014.9hPa SO 4.7mph /  7.6km/h 9mph /  14.5km/h 73% 0in /  0.0mm
02:19 76.8 °F /  24.9 °C 67.5 °F /  19.7 °C 30in /  1014.9hPa SE 4.7mph /  7.6km/h 11.5mph /  18.5km/h 73% 0in /  0.0mm
02:24 76.8 °F /  24.9 °C 67.5 °F /  19.7 °C 30in /  1014.7hPa SO 4.7mph /  7.6km/h 12mph /  19.3km/h 73% 0in /  0.0mm
02:29 77.2 °F /  25.1 °C 67.8 °F /  19.9 °C 30in /  1014.7hPa ONO 5mph /  8km/h 11mph /  17.7km/h 72.8% 0in /  0.0mm
02:34 77.2 °F /  25.1 °C 67.5 °F /  19.7 °C 30in /  1014.7hPa ESE 5.4mph /  8.7km/h 10mph /  16.1km/h 72.1% 0in /  0.0mm
02:39 76.8 °F /  24.9 °C 67.5 °F /  19.7 °C 30in /  1014.7hPa SO 5.1mph /  8.2km/h 10.4mph /  16.7km/h 73% 0in /  0.0mm
02:44 76.8 °F /  24.9 °C 67.5 °F /  19.7 °C 30in /  1014.7hPa SE 4.7mph /  7.6km/h 10mph /  16.1km/h 73% 0in /  0.0mm
02:49 76.8 °F /  24.9 °C 67.5 °F /  19.7 °C 30in /  1014.7hPa Sur 4.5mph /  7.3km/h 7.4mph /  11.9km/h 73% 0in /  0.0mm
02:54 76.8 °F /  24.9 °C 67.5 °F /  19.7 °C 30in /  1014.6hPa SE 4.3mph /  6.9km/h 7mph /  11.3km/h 73% 0in /  0.0mm
02:59 76.8 °F /  24.9 °C 67.5 °F /  19.7 °C 30in /  1014.6hPa SSO 4.3mph /  6.9km/h 8.1mph /  13km/h 73% 0in /  0.0mm
03:04 76.8 °F /  24.9 °C 67.5 °F /  19.7 °C 30in /  1014.6hPa Este 4.3mph /  6.9km/h 8mph /  12.9km/h 73% 0in /  0.0mm
03:09 76.8 °F /  24.9 °C 67.5 °F /  19.7 °C 30in /  1014.5hPa SSO 4mph /  6.5km/h 7.4mph /  11.9km/h 73% 0in /  0.0mm
03:14 77 °F /  25 °C 67.6 °F /  19.8 °C 30in /  1014.5hPa SSO 3.6mph /  5.8km/h 7.4mph /  11.9km/h 73% 0in /  0.0mm
03:19 77 °F /  25 °C 67.6 °F /  19.8 °C 30in /  1014.5hPa Sur 3.7mph /  6km/h 7mph /  11.3km/h 72.6% 0in /  0.0mm
03:24 77.2 °F /  25.1 °C 67.5 °F /  19.7 °C 30in /  1014.4hPa SSO 4mph /  6.5km/h 6mph /  9.7km/h 72% 0in /  0.0mm
03:29 77.2 °F /  25.1 °C 67.5 °F /  19.7 °C 30in /  1014.4hPa Sur 3.7mph /  5.9km/h 6.4mph /  10.3km/h 72% 0in /  0.0mm
03:34 77.2 °F /  25.1 °C 67.5 °F /  19.7 °C 30in /  1014.4hPa SSO 3.1mph /  5km/h 7mph /  11.3km/h 72% 0in /  0.0mm
03:39 77.2 °F /  25.1 °C 67.5 °F /  19.7 °C 30in /  1014.3hPa Sur 3.6mph /  5.8km/h 7mph /  11.3km/h 72% 0in /  0.0mm
03:44 77.2 °F /  25.1 °C 67.5 °F /  19.7 °C 30in /  1014.3hPa Sur 4.3mph /  6.9km/h 9.2mph /  14.8km/h 72% 0in /  0.0mm
03:49 77.2 °F /  25.1 °C 67.5 °F /  19.7 °C 30in /  1014.4hPa SSO 4.7mph /  7.5km/h 10mph /  16.1km/h 72% 0in /  0.0mm
03:54 77.2 °F /  25.1 °C 67.5 °F /  19.7 °C 30in /  1014.4hPa SSO 5.2mph /  8.4km/h 10.4mph /  16.7km/h 72% 0in /  0.0mm
03:59 77.2 °F /  25.1 °C 67.5 °F /  19.7 °C 30in /  1014.4hPa SO 4.7mph /  7.5km/h 6.2mph /  10km/h 72% 0in /  0.0mm
04:04 77.2 °F /  25.1 °C 67.5 °F /  19.7 °C 30in /  1014.4hPa SSO 4mph /  6.5km/h 6.9mph /  11.1km/h 72% 0in /  0.0mm
04:09 77.2 °F /  25.1 °C 67.5 °F /  19.7 °C 30in /  1014.2hPa SSO 4mph /  6.5km/h 7mph /  11.3km/h 71.9% 0in /  0.0mm
04:14 77.4 °F /  25.2 °C 67.1 °F /  19.5 °C 30in /  1014.2hPa SO 4mph /  6.5km/h 6.9mph /  11.1km/h 71% 0in /  0.0mm
04:19 77.4 °F /  25.2 °C 67.3 °F /  19.6 °C 30in /  1014.2hPa SO 4mph /  6.5km/h 7.4mph /  11.9km/h 71% 0in /  0.0mm
04:24 77.4 °F /  25.2 °C 67.3 °F /  19.6 °C 30in /  1014.2hPa Sur 4mph /  6.5km/h 7mph /  11.3km/h 71% 0in /  0.0mm
04:29 77.4 °F /  25.2 °C 67.1 °F /  19.5 °C 30in /  1014.2hPa SSO 4.2mph /  6.7km/h 7.4mph /  11.9km/h 71% 0in /  0.0mm
04:34 77.2 °F /  25.1 °C 67.3 °F /  19.6 °C 30in /  1014.4hPa SO 4.3mph /  6.9km/h 7.4mph /  11.9km/h 71.7% 0in /  0.0mm
04:39 77.2 °F /  25.1 °C 66.9 °F /  19.4 °C 30in /  1014.4hPa SO 4.3mph /  6.9km/h 7mph /  11.3km/h 71% 0in /  0.0mm
04:44 77.2 °F /  25.1 °C 66.9 °F /  19.4 °C 30in /  1014.4hPa SSO 4.3mph /  6.9km/h 6mph /  9.7km/h 71% 0in /  0.0mm
04:49 77.2 °F /  25.1 °C 66.9 °F /  19.4 °C 30in /  1014.4hPa SO 3.7mph /  6km/h 8.1mph /  13km/h 71% 0in /  0.0mm
04:54 77.2 °F /  25.1 °C 66.9 °F /  19.4 °C 30in /  1014.4hPa SSO 2.9mph /  4.7km/h 8mph /  12.9km/h 71% 0in /  0.0mm
04:59 77.2 °F /  25.1 °C 66.9 °F /  19.4 °C 30in /  1014.4hPa SSO 3.4mph /  5.5km/h 6.2mph /  10km/h 71% 0in /  0.0mm
05:04 77 °F /  25 °C 66.7 °F /  19.3 °C 30in /  1014.7hPa Sur 4mph /  6.5km/h 6mph /  9.7km/h 71% 0in /  0.0mm
05:09 76.8 °F /  24.9 °C 66.7 °F /  19.3 °C 30in /  1014.7hPa SO 3.9mph /  6.2km/h 6mph /  9.7km/h 71% 0in /  0.0mm
05:14 76.8 °F /  24.9 °C 66.4 °F /  19.1 °C 30in /  1014.7hPa SO 3.6mph /  5.8km/h 6mph /  9.7km/h 70.3% 0in /  0.0mm
05:19 76.8 °F /  24.9 °C 66.4 °F /  19.1 °C 30in /  1014.7hPa SO 3.1mph /  5km/h 5.9mph /  9.5km/h 70% 0in /  0.0mm
05:24 76.8 °F /  24.9 °C 66.4 °F /  19.1 °C 30in /  1014.7hPa SO 2.4mph /  3.9km/h 6mph /  9.7km/h 70% 0in /  0.0mm
05:29 76.8 °F /  24.9 °C 66.2 °F /  19 °C 30in /  1014.7hPa OSO 2.7mph /  4.3km/h 6mph /  9.7km/h 69.7% 0in /  0.0mm
05:34 76.8 °F /  24.9 °C 66 °F /  18.9 °C 30in /  1014.7hPa SO 3.1mph /  5km/h 6.9mph /  11.1km/h 69.1% 0in /  0.0mm
05:39 76.8 °F /  24.9 °C 65.8 °F /  18.8 °C 30in /  1014.7hPa SSO 3.5mph /  5.6km/h 8.1mph /  13km/h 69% 0in /  0.0mm
05:44 76.8 °F /  24.9 °C 65.8 °F /  18.8 °C 30in /  1014.7hPa SO 4mph /  6.5km/h 8.5mph /  13.7km/h 69% 0in /  0.0mm
05:49 76.8 °F /  24.9 °C 65.8 °F /  18.8 °C 30in /  1014.8hPa SO 4.5mph /  7.3km/h 9mph /  14.5km/h 69% 0in /  0.0mm
05:54 76.8 °F /  24.9 °C 65.8 °F /  18.8 °C 30in /  1014.8hPa SSO 5.2mph /  8.4km/h 7mph /  11.3km/h 69% 0in /  0.0mm
05:59 76.8 °F /  24.9 °C 65.8 °F /  18.8 °C 30in /  1014.8hPa SO 4.2mph /  6.8km/h 5.9mph /  9.5km/h 69% 0in /  0.0mm
06:04 76.8 °F /  24.9 °C 65.8 °F /  18.8 °C 30in /  1014.9hPa SSO 3.1mph /  5km/h 6.9mph /  11.1km/h 69% 0in /  0.0mm
06:09 76.8 °F /  24.9 °C 66 °F /  18.9 °C 30in /  1014.9hPa SO 3.3mph /  5.3km/h 7mph /  11.3km/h 69.1% 0in /  0.0mm
06:14 76.8 °F /  24.9 °C 66.2 °F /  19 °C 30in /  1014.9hPa SSO 3.6mph /  5.8km/h 6mph /  9.7km/h 69.8% 0in /  0.0mm
06:19 76.8 °F /  24.9 °C 66.2 °F /  19 °C 30in /  1014.9hPa Sur 2.9mph /  4.6km/h 5mph /  8km/h 70% 0in /  0.0mm
06:24 76.6 °F /  24.8 °C 66 °F /  18.9 °C 30in /  1014.9hPa SO 1.8mph /  2.9km/h 5mph /  8km/h 70% 0in /  0.0mm
06:29 76.5 °F /  24.7 °C 66 °F /  18.9 °C 30in /  1014.9hPa ONO 1.6mph /  2.6km/h 4.6mph /  7.4km/h 70.2% 0in /  0.0mm
06:34 76.1 °F /  24.5 °C 66 °F /  18.9 °C 30in /  1014.9hPa Oeste 1.4mph /  2.2km/h 5mph /  8km/h 71% 0in /  0.0mm
06:39 75.9 °F /  24.4 °C 65.8 °F /  18.8 °C 30in /  1014.9hPa SO 1.7mph /  2.7km/h 5mph /  8km/h 71% 0in /  0.0mm
06:44 75.9 °F /  24.4 °C 65.8 °F /  18.8 °C 30in /  1014.9hPa NO 2mph /  3.2km/h 5mph /  8km/h 71% 0in /  0.0mm
06:49 75.9 °F /  24.4 °C 65.8 °F /  18.8 °C 30in /  1015.1hPa NO 1.9mph /  3.1km/h 4.3mph /  6.9km/h 71% 0in /  0.0mm
06:54 75.9 °F /  24.4 °C 65.5 °F /  18.6 °C 30in /  1015.1hPa OSO 1.8mph /  2.9km/h 5.2mph /  8.4km/h 70% 0in /  0.0mm
06:59 75.9 °F /  24.4 °C 65.5 °F /  18.6 °C 30in /  1015.1hPa Oeste 2.3mph /  3.7km/h 5mph /  8km/h 70% 0in /  0.0mm
07:04 76.1 °F /  24.5 °C 65.5 °F /  18.6 °C 30in /  1015.1hPa ONO 2.9mph /  4.6km/h 5mph /  8km/h 70% 0in /  0.0mm
07:09 75.9 °F /  24.4 °C 65.5 °F /  18.6 °C 30in /  1015.0hPa ONO 2.7mph /  4.3km/h 5mph /  8km/h 70% 0in /  0.0mm
07:14 75.9 °F /  24.4 °C 65.5 °F /  18.6 °C 30in /  1015.0hPa ONO 2.4mph /  3.9km/h 4mph /  6.4km/h 70% 0in /  0.0mm
07:19 75.9 °F /  24.4 °C 65.3 °F /  18.5 °C 30in /  1015.1hPa ONO 2mph /  3.2km/h 3.6mph /  5.8km/h 69.5% 0in /  0.0mm
07:24 75.9 °F /  24.4 °C 64.9 °F /  18.3 °C 30in /  1015.1hPa Oeste 1.4mph /  2.2km/h 4mph /  6.4km/h 69% 0in /  0.0mm
07:29 76.1 °F /  24.5 °C 65.1 °F /  18.4 °C 30in /  1015.1hPa NNE 1.6mph /  2.5km/h 4mph /  6.4km/h 69% 0in /  0.0mm
07:34 76.1 °F /  24.5 °C 64.9 °F /  18.3 °C 30in /  1015.4hPa NNE 1.8mph /  2.9km/h 4mph /  6.4km/h 68.5% 0in /  0.0mm
07:39 76.3 °F /  24.6 °C 64.9 °F /  18.3 °C 30in /  1015.4hPa NNO 1.1mph /  1.7km/h 5.2mph /  8.4km/h 68% 0in /  0.0mm
07:44 76.5 °F /  24.7 °C 65.3 °F /  18.5 °C 30in /  1015.4hPa Calm   5mph /  8km/h 68.5% 0in /  0.0mm
07:49 76.6 °F /  24.8 °C 65.3 °F /  18.5 °C 30in /  1015.4hPa NNO 0.6mph /  1km/h 5mph /  8km/h 67.9% 0in /  0.0mm
07:54 76.8 °F /  24.9 °C 65.1 °F /  18.4 °C 30in /  1015.4hPa NNO 1.4mph /  2.2km/h 3mph /  4.8km/h 67% 0in /  0.0mm
07:59 77.4 °F /  25.2 °C 65.3 °F /  18.5 °C 30in /  1015.4hPa NNO 1.4mph /  2.2km/h 3.5mph /  5.6km/h 66.7% 0in /  0.0mm
08:04 77.5 °F /  25.3 °C 65.3 °F /  18.5 °C 30in /  1015.4hPa NNO 1.4mph /  2.2km/h 3mph /  4.8km/h 66% 0in /  0.0mm
08:09 77.9 °F /  25.5 °C 65.3 °F /  18.5 °C 30in /  1015.4hPa NNO 1.4mph /  2.2km/h 3mph /  4.8km/h 65.4% 0in /  0.0mm
08:14 78.3 °F /  25.7 °C 65.3 °F /  18.5 °C 30in /  1015.4hPa NNO 1.4mph /  2.2km/h 2mph /  3.2km/h 64.4% 0in /  0.0mm
08:19 78.6 °F /  25.9 °C 65.1 °F /  18.4 °C 30in /  1015.4hPa NNO 0.8mph /  1.3km/h   63.2% 0in /  0.0mm
08:24 79.2 °F /  26.2 °C 64.9 °F /  18.3 °C 30in /  1015.4hPa Calm   3.5mph /  5.6km/h 61.6% 0in /  0.0mm
08:29 79.3 °F /  26.3 °C 64.8 °F /  18.2 °C 30in /  1015.4hPa Calm   3mph /  4.8km/h 60.8% 0in /  0.0mm
08:34 79.7 °F /  26.5 °C 64.9 °F /  18.3 °C 30in /  1015.6hPa Calm   3.5mph /  5.6km/h 60.4% 0in /  0.0mm
08:39 79.9 °F /  26.6 °C 64.8 °F /  18.2 °C 30in /  1015.6hPa NNO 0.7mph /  1.1km/h 3.5mph /  5.6km/h 60% 0in /  0.0mm
08:44 80.1 °F /  26.7 °C 64.9 °F /  18.3 °C 30in /  1015.6hPa NE 1.8mph /  2.9km/h 4mph /  6.4km/h 60% 0in /  0.0mm
08:49 80.1 °F /  26.7 °C 64.8 °F /  18.2 °C 30in /  1015.6hPa NNO 1.9mph /  3km/h 4.7mph /  7.6km/h 59.7% 0in /  0.0mm
08:54 80.1 °F /  26.7 °C 64.8 °F /  18.2 °C 30in /  1015.6hPa NNO 2mph /  3.2km/h 6.9mph /  11.1km/h 59.6% 0in /  0.0mm
08:59 80.1 °F /  26.7 °C 64.9 °F /  18.3 °C 30in /  1015.6hPa NNO 2.5mph /  4km/h 7mph /  11.3km/h 60.1% 0in /  0.0mm
09:04 80.2 °F /  26.8 °C 65.1 °F /  18.4 °C 30in /  1015.7hPa NNO 3.1mph /  5km/h 6mph /  9.7km/h 60% 0in /  0.0mm
09:09 80.4 °F /  26.9 °C 64.9 °F /  18.3 °C 30in /  1015.7hPa NNE 2.6mph /  4.2km/h 6.2mph /  10km/h 59.1% 0in /  0.0mm
09:14 80.8 °F /  27.1 °C 64.8 °F /  18.2 °C 30in /  1015.7hPa North 2mph /  3.2km/h 6mph /  9.7km/h 58.6% 0in /  0.0mm
09:19 80.8 °F /  27.1 °C 64.6 °F /  18.1 °C 30in /  1015.7hPa North 2.4mph /  3.8km/h 6mph /  9.7km/h 58% 0in /  0.0mm
09:24 81 °F /  27.2 °C 64.6 °F /  18.1 °C 30in /  1015.7hPa NNE 2.9mph /  4.7km/h 8.1mph /  13km/h 57.8% 0in /  0.0mm
09:29 81.1 °F /  27.3 °C 64.4 °F /  18 °C 30in /  1015.7hPa NNE 3.5mph /  5.6km/h 10.7mph /  17.2km/h 56.7% 0in /  0.0mm
09:34 81.1 °F /  27.3 °C 64.4 °F /  18 °C 30in /  1015.7hPa NNE 4.3mph /  6.9km/h 11mph /  17.7km/h 57% 0in /  0.0mm
09:39 81.1 °F /  27.3 °C 64.6 °F /  18.1 °C 30in /  1015.7hPa NNE 5mph /  8km/h 10mph /  16.1km/h 57% 0in /  0.0mm
09:44 81.5 °F /  27.5 °C 64.8 °F /  18.2 °C 30in /  1015.7hPa NNE 5.9mph /  9.5km/h 8.5mph /  13.7km/h 56.9% 0in /  0.0mm
09:49 81.9 °F /  27.7 °C 64.8 °F /  18.2 °C 30in /  1015.9hPa NNE 5.7mph /  9.2km/h 13.8mph /  22.2km/h 56.3% 0in /  0.0mm
09:54 82 °F /  27.8 °C 64.8 °F /  18.2 °C 30in /  1015.9hPa NNE 5.4mph /  8.7km/h 14mph /  22.5km/h 56% 0in /  0.0mm
09:59 82.2 °F /  27.9 °C 63.9 °F /  17.7 °C 30in /  1015.9hPa NE 6.3mph /  10.2km/h 15mph /  24.1km/h 53.8% 0in /  0.0mm
10:04 82.6 °F /  28.1 °C 63.7 °F /  17.6 °C 30in /  1015.9hPa NE 7.6mph /  12.2km/h 15mph /  24.1km/h 52.8% 0in /  0.0mm
10:09 82.9 °F /  28.3 °C 63.7 °F /  17.6 °C 30in /  1015.9hPa NE 8.1mph /  13km/h 15mph /  24.1km/h 52.5% 0in /  0.0mm
10:14 83.3 °F /  28.5 °C 63.9 °F /  17.7 °C 30in /  1015.9hPa NE 8.7mph /  14km/h 14mph /  22.5km/h 52% 0in /  0.0mm
10:19 83.7 °F /  28.7 °C 63.3 °F /  17.4 °C 30in /  1015.9hPa NNE 8.3mph /  13.3km/h 14mph /  22.5km/h 50.6% 0in /  0.0mm
10:24 83.7 °F /  28.7 °C 63.3 °F /  17.4 °C 30in /  1015.8hPa NNE 7.6mph /  12.2km/h 15.2mph /  24.5km/h 50.5% 0in /  0.0mm
10:29 84 °F /  28.9 °C 63.5 °F /  17.5 °C 30in /  1015.8hPa NNE 8mph /  12.9km/h 15mph /  24.1km/h 50.2% 0in /  0.0mm
10:34 84 °F /  28.9 °C 63.5 °F /  17.5 °C 30in /  1015.8hPa NNE 8.5mph /  13.7km/h 17.3mph /  27.8km/h 50% 0in /  0.0mm
10:39 84.2 °F /  29 °C 63.5 °F /  17.5 °C 30in /  1015.8hPa NNE 8.6mph /  13.8km/h 17mph /  27.4km/h 49.9% 0in /  0.0mm
10:44 84.6 °F /  29.2 °C 63.5 °F /  17.5 °C 30in /  1015.8hPa NE 8.7mph /  14km/h 16mph /  25.7km/h 49.4% 0in /  0.0mm
10:49 85.1 °F /  29.5 °C 63 °F /  17.2 °C 30in /  1015.9hPa NE 8.6mph /  13.9km/h 21.5mph /  34.6km/h 47.7% 0in /  0.0mm
10:54 85.5 °F /  29.7 °C 62.8 °F /  17.1 °C 30in /  1015.9hPa NE 8.5mph /  13.7km/h 22mph /  35.4km/h 46.8% 0in /  0.0mm
10:59 85.5 °F /  29.7 °C 63 °F /  17.2 °C 30in /  1015.9hPa NE 10.1mph /  16.3km/h 21mph /  33.8km/h 47.1% 0in /  0.0mm
11:04 85.6 °F /  29.8 °C 63.1 °F /  17.3 °C 30in /  1016.0hPa NNE 12.3mph /  19.8km/h 24.2mph /  38.9km/h 47% 0in /  0.0mm
11:09 85.8 °F /  29.9 °C 62.6 °F /  17 °C 30in /  1016.0hPa NE 12.6mph /  20.3km/h 24mph /  38.6km/h 46% 0in /  0.0mm
11:14 85.8 °F /  29.9 °C 62.4 °F /  16.9 °C 30in /  1016.0hPa NE 13mph /  20.9km/h 25.3mph /  40.7km/h 45.7% 0in /  0.0mm
11:19 85.8 °F /  29.9 °C 62.2 °F /  16.8 °C 30in /  1016.0hPa NE 13.2mph /  21.2km/h 25mph /  40.2km/h 45.3% 0in /  0.0mm
11:24 86.4 °F /  30.2 °C 62.6 °F /  17 °C 30in /  1015.9hPa NNE 13.5mph /  21.7km/h 23mph /  37km/h 45.2% 0in /  0.0mm
11:29 86.5 °F /  30.3 °C 62.8 °F /  17.1 °C 30in /  1015.9hPa NE 12.8mph /  20.6km/h 23mph /  37km/h 45.2% 0in /  0.0mm
11:34 86.5 °F /  30.3 °C 62.6 °F /  17 °C 30in /  1015.9hPa NE 11.8mph /  19km/h 21mph /  33.8km/h 44.9% 0in /  0.0mm
11:39 86.7 °F /  30.4 °C 62.1 °F /  16.7 °C 30in /  1015.8hPa NE 12.1mph /  19.4km/h 21.3mph /  34.3km/h 43.9% 0in /  0.0mm
11:44 87.1 °F /  30.6 °C 62.8 °F /  17.1 °C 30in /  1015.8hPa NE 12.5mph /  20.1km/h 21mph /  33.8km/h 44.4% 0in /  0.0mm
11:49 87.3 °F /  30.7 °C 62.2 °F /  16.8 °C 30in /  1016.0hPa NE 12.2mph /  19.7km/h 22.3mph /  35.9km/h 43.3% 0in /  0.0mm
11:54 87.3 °F /  30.7 °C 62.6 °F /  17 °C 30in /  1016.0hPa NE 11.8mph /  19km/h 22mph /  35.4km/h 43.9% 0in /  0.0mm
11:59 87.3 °F /  30.7 °C 62.8 °F /  17.1 °C 30in /  1016.0hPa NE 11.3mph /  18.2km/h 21mph /  33.8km/h 44.1% 0in /  0.0mm
12:04 87.3 °F /  30.7 °C 62.6 °F /  17 °C 30in /  1016.0hPa NE 10.7mph /  17.2km/h 21.3mph /  34.3km/h 43.9% 0in /  0.0mm
12:09 87.1 °F /  30.6 °C 62.2 °F /  16.8 °C 30in /  1016.0hPa ENE 11.4mph /  18.4km/h 21mph /  33.8km/h 43.6% 0in /  0.0mm
12:14 87.3 °F /  30.7 °C 62.4 °F /  16.9 °C 30in /  1016.0hPa NE 12.5mph /  20.1km/h 23mph /  37km/h 43.7% 0in /  0.0mm
12:19 87.1 °F /  30.6 °C 63.1 °F /  17.3 °C 30in /  1016.0hPa NE 12.4mph /  20km/h 23mph /  37km/h 45% 0in /  0.0mm
12:24 87.3 °F /  30.7 °C 64 °F /  17.8 °C 30in /  1016.0hPa ENE 12.3mph /  19.8km/h 23mph /  37km/h 46.1% 0in /  0.0mm
12:29 87.3 °F /  30.7 °C 64 °F /  17.8 °C 30in /  1016.0hPa ENE 11.4mph /  18.4km/h 23mph /  37km/h 46% 0in /  0.0mm
12:34 86.9 °F /  30.5 °C 63.9 °F /  17.7 °C 30in /  1016.1hPa ENE 10.2mph /  16.4km/h 21mph /  33.8km/h 46.2% 0in /  0.0mm
12:39 86.7 °F /  30.4 °C 64 °F /  17.8 °C 30in /  1016.1hPa NE 10.4mph /  16.7km/h 22.5mph /  36.2km/h 46.8% 0in /  0.0mm
12:44 86.7 °F /  30.4 °C 63.7 °F /  17.6 °C 30in /  1016.1hPa NE 10.7mph /  17.2km/h 23mph /  37km/h 46.2% 0in /  0.0mm
12:49 86.7 °F /  30.4 °C 64 °F /  17.8 °C 30in /  1016.1hPa Este 11.9mph /  19.1km/h 26.5mph /  42.6km/h 46.9% 0in /  0.0mm
12:54 86.7 °F /  30.4 °C 64.2 °F /  17.9 °C 30in /  1016.1hPa NE 13.5mph /  21.7km/h 26mph /  41.8km/h 47.1% 0in /  0.0mm
12:59 86.7 °F /  30.4 °C 64.2 °F /  17.9 °C 30in /  1016.1hPa ENE 12.8mph /  20.6km/h 23mph /  37km/h 47.3% 0in /  0.0mm
13:04 86.9 °F /  30.5 °C 64 °F /  17.8 °C 30in /  1016.1hPa ENE 11.8mph /  19km/h 21mph /  33.8km/h 46.6% 0in /  0.0mm
13:09 87.1 °F /  30.6 °C 64 °F /  17.8 °C 30in /  1016.1hPa ENE 10.9mph /  17.6km/h 18.4mph /  29.6km/h 46.6% 0in /  0.0mm
13:14 87.1 °F /  30.6 °C 64.2 °F /  17.9 °C 30in /  1016.1hPa ENE 9.7mph /  15.6km/h 21.9mph /  35.2km/h 46.8% 0in /  0.0mm
13:19 87.1 °F /  30.6 °C 64.4 °F /  18 °C 30in /  1016.1hPa ENE 9.9mph /  15.9km/h 22mph /  35.4km/h 47.1% 0in /  0.0mm
13:24 87.3 °F /  30.7 °C 64.6 °F /  18.1 °C 30in /  1016.0hPa ENE 10.2mph /  16.4km/h 21mph /  33.8km/h 47% 0in /  0.0mm
13:29 87.3 °F /  30.7 °C 64.6 °F /  18.1 °C 30in /  1016.0hPa NE 10.1mph /  16.3km/h 21mph /  33.8km/h 46.9% 0in /  0.0mm
13:34 87.3 °F /  30.7 °C 64.2 °F /  17.9 °C 30in /  1016.0hPa NE 10mph /  16.1km/h 21.9mph /  35.2km/h 46.3% 0in /  0.0mm
13:39 87.3 °F /  30.7 °C 64.2 °F /  17.9 °C 30in /  1015.9hPa ENE 10.9mph /  17.6km/h 22.3mph /  35.9km/h 46.2% 0in /  0.0mm
13:44 87.4 °F /  30.8 °C 63.9 °F /  17.7 °C 30in /  1015.9hPa ENE 12.3mph /  19.8km/h 22mph /  35.4km/h 45.6% 0in /  0.0mm
13:49 87.4 °F /  30.8 °C 63.9 °F /  17.7 °C 30in /  1015.9hPa ENE 12mph /  19.3km/h 20mph /  32.2km/h 45.6% 0in /  0.0mm
13:54 87.4 °F /  30.8 °C 64 °F /  17.8 °C 30in /  1015.7hPa NE 10.7mph /  17.2km/h 19.2mph /  30.9km/h 46% 0in /  0.0mm
13:59 87.3 °F /  30.7 °C 63.7 °F /  17.6 °C 30in /  1015.7hPa NE 10.5mph /  16.9km/h 20mph /  32.2km/h 45.6% 0in /  0.0mm
14:04 87.4 °F /  30.8 °C 63.3 °F /  17.4 °C 30in /  1015.8hPa NE 10mph /  16.1km/h 20.8mph /  33.5km/h 45% 0in /  0.0mm
14:09 87.1 °F /  30.6 °C 63.7 °F /  17.6 °C 30in /  1015.8hPa ENE 10.4mph /  16.8km/h 21mph /  33.8km/h 45.7% 0in /  0.0mm
14:14 87.3 °F /  30.7 °C 63.9 °F /  17.7 °C 30in /  1015.8hPa ENE 12.3mph /  19.8km/h 19mph /  30.6km/h 46% 0in /  0.0mm
14:19 87.1 °F /  30.6 °C 63.9 °F /  17.7 °C 30in /  1015.8hPa ENE 11.9mph /  19.1km/h 22.3mph /  35.9km/h 46% 0in /  0.0mm
14:24 87.1 °F /  30.6 °C 63.9 °F /  17.7 °C 30in /  1015.7hPa ENE 10mph /  16.1km/h 22mph /  35.4km/h 46.1% 0in /  0.0mm
14:29 87.1 °F /  30.6 °C 63.9 °F /  17.7 °C 30in /  1015.7hPa ENE 10.1mph /  16.2km/h 19.6mph /  31.5km/h 46% 0in /  0.0mm
14:34 87.3 °F /  30.7 °C 64 °F /  17.8 °C 30in /  1015.7hPa ENE 10.2mph /  16.4km/h 20mph /  32.2km/h 46% 0in /  0.0mm
14:39 87.4 °F /  30.8 °C 64.2 °F /  17.9 °C 30in /  1015.6hPa NE 10.3mph /  16.6km/h 21.9mph /  35.2km/h 46.1% 0in /  0.0mm
14:44 87.3 °F /  30.7 °C 64.4 °F /  18 °C 30in /  1015.6hPa ENE 10.7mph /  17.2km/h 22mph /  35.4km/h 46.7% 0in /  0.0mm
14:49 87.4 °F /  30.8 °C 64 °F /  17.8 °C 30in /  1015.6hPa ENE 10.7mph /  17.2km/h 23mph /  37km/h 46% 0in /  0.0mm
14:54 87.6 °F /  30.9 °C 63.9 °F /  17.7 °C 30in /  1015.5hPa ENE 10.7mph /  17.2km/h 23mph /  37km/h 45.5% 0in /  0.0mm
14:59 88 °F /  31.1 °C 64 °F /  17.8 °C 30in /  1015.5hPa Este 10.6mph /  17km/h 20mph /  32.2km/h 45.1% 0in /  0.0mm
15:04 88.2 °F /  31.2 °C 64 °F /  17.8 °C 30in /  1015.6hPa ENE 10.2mph /  16.4km/h 19.2mph /  30.9km/h 45% 0in /  0.0mm
15:09 88.3 °F /  31.3 °C 64 °F /  17.8 °C 30in /  1015.6hPa ENE 10.2mph /  16.4km/h 20mph /  32.2km/h 44.5% 0in /  0.0mm
15:14 88.5 °F /  31.4 °C 63.7 °F /  17.6 °C 30in /  1015.6hPa ENE 10.2mph /  16.4km/h 18mph /  29km/h 44% 0in /  0.0mm
15:19 89.1 °F /  31.7 °C 63.5 °F /  17.5 °C 30in /  1015.6hPa NE 10mph /  16.1km/h 18.4mph /  29.6km/h 43% 0in /  0.0mm
15:24 89.2 °F /  31.8 °C 62.2 °F /  16.8 °C 30in /  1015.5hPa NE 9.2mph /  14.8km/h 23mph /  37km/h 40.7% 0in /  0.0mm
15:29 88.9 °F /  31.6 °C 63 °F /  17.2 °C 30in /  1015.5hPa ENE 9.8mph /  15.8km/h 23mph /  37km/h 42.2% 0in /  0.0mm
15:34 88.3 °F /  31.3 °C 63.3 °F /  17.4 °C 30in /  1015.5hPa ENE 12.3mph /  19.8km/h 20mph /  32.2km/h 43.3% 0in /  0.0mm
15:39 88 °F /  31.1 °C 62.8 °F /  17.1 °C 30in /  1015.5hPa ENE 11.6mph /  18.7km/h 19mph /  30.6km/h 43.2% 0in /  0.0mm
15:44 88.2 °F /  31.2 °C 62.4 °F /  16.9 °C 30in /  1015.5hPa NE 9.2mph /  14.8km/h 17.8mph /  28.6km/h 42.4% 0in /  0.0mm
15:49 88.5 °F /  31.4 °C 62.4 °F /  16.9 °C 30in /  1015.5hPa NE 9.2mph /  14.8km/h 18.4mph /  29.6km/h 42% 0in /  0.0mm
15:54 88.5 °F /  31.4 °C 62.6 °F /  17 °C 30in /  1015.2hPa NE 9.2mph /  14.8km/h 22.3mph /  35.9km/h 42.2% 0in /  0.0mm
15:59 88.5 °F /  31.4 °C 62.6 °F /  17 °C 30in /  1015.2hPa ENE 10mph /  16.1km/h 22mph /  35.4km/h 42.1% 0in /  0.0mm
16:04 89.1 °F /  31.7 °C 62.2 °F /  16.8 °C 30in /  1015.2hPa ENE 12.3mph /  19.8km/h 21mph /  33.8km/h 40.9% 0in /  0.0mm
16:09 89.4 °F /  31.9 °C 61.9 °F /  16.6 °C 30in /  1015.2hPa ENE 11.9mph /  19.2km/h 22.3mph /  35.9km/h 39.8% 0in /  0.0mm
16:14 89.8 °F /  32.1 °C 61.7 °F /  16.5 °C 30in /  1015.2hPa NE 10.7mph /  17.2km/h 22mph /  35.4km/h 39.4% 0in /  0.0mm
16:19 89.4 °F /  31.9 °C 61.5 °F /  16.4 °C 30in /  1015.2hPa NE 10.8mph /  17.4km/h 22mph /  35.4km/h 39.6% 0in /  0.0mm
16:24 88.9 °F /  31.6 °C 61.7 °F /  16.5 °C 30in /  1015.1hPa NE 11.2mph /  18km/h 26.5mph /  42.6km/h 40.3% 0in /  0.0mm
16:29 88.7 °F /  31.5 °C 62.1 °F /  16.7 °C 30in /  1015.1hPa ENE 11.7mph /  18.9km/h 26mph /  41.8km/h 41.2% 0in /  0.0mm
16:34 88.5 °F /  31.4 °C 61.9 °F /  16.6 °C 30in /  1015.1hPa NE 13.7mph /  22.1km/h 23.5mph /  37.8km/h 41.1% 0in /  0.0mm
16:39 88.3 °F /  31.3 °C 61.7 °F /  16.5 °C 30in /  1015.0hPa NE 13.5mph /  21.8km/h 23mph /  37km/h 41% 0in /  0.0mm
16:44 88.7 °F /  31.5 °C 61.7 °F /  16.5 °C 30in /  1015.0hPa NE 13mph /  20.9km/h 23mph /  37km/h 40.5% 0in /  0.0mm
16:49 89.1 °F /  31.7 °C 62.2 °F /  16.8 °C 30in /  1015.0hPa NE 12.7mph /  20.4km/h 29.4mph /  47.3km/h 41% 0in /  0.0mm
16:54 89.1 °F /  31.7 °C 61.9 °F /  16.6 °C 30in /  1014.8hPa NE 11.4mph /  18.4km/h 30mph /  48.3km/h 40.4% 0in /  0.0mm
16:59 89.1 °F /  31.7 °C 61.3 °F /  16.3 °C 30in /  1014.8hPa NE 12mph /  19.3km/h 30mph /  48.3km/h 39.6% 0in /  0.0mm
17:04 88.9 °F /  31.6 °C 61 °F /  16.1 °C 30in /  1014.8hPa NE 13.7mph /  22.1km/h 25.3mph /  40.7km/h 39.3% 0in /  0.0mm
17:09 88.5 °F /  31.4 °C 61 °F /  16.1 °C 30in /  1014.8hPa NE 14.2mph /  22.8km/h 25.3mph /  40.7km/h 39.9% 0in /  0.0mm
17:14 88.9 °F /  31.6 °C 60.8 °F /  16 °C 30in /  1014.8hPa NE 15.9mph /  25.6km/h 24.6mph /  39.6km/h 39.3% 0in /  0.0mm
17:19 89.1 °F /  31.7 °C 60.8 °F /  16 °C 30in /  1014.8hPa NE 15.5mph /  24.9km/h 25.6mph /  41.2km/h 38.8% 0in /  0.0mm
17:24 89.2 °F /  31.8 °C 60.4 °F /  15.8 °C 30in /  1014.7hPa NE 14mph /  22.5km/h 27.5mph /  44.3km/h 38.2% 0in /  0.0mm
17:29 89.4 °F /  31.9 °C 60.4 °F /  15.8 °C 30in /  1014.7hPa NE 13.9mph /  22.4km/h 28mph /  45.1km/h 38% 0in /  0.0mm
17:34 89.4 °F /  31.9 °C 60.3 °F /  15.7 °C 30in /  1014.7hPa NE 13.7mph /  22.1km/h 26.8mph /  43.1km/h 37.7% 0in /  0.0mm
17:39 89.4 °F /  31.9 °C 60.3 °F /  15.7 °C 30in /  1014.7hPa NE 13.7mph /  22km/h 27mph /  43.5km/h 37.5% 0in /  0.0mm
17:44 89.2 °F /  31.8 °C 60.3 °F /  15.7 °C 30in /  1014.7hPa NE 13.5mph /  21.7km/h 27mph /  43.5km/h 37.8% 0in /  0.0mm
17:49 89.2 °F /  31.8 °C 60.3 °F /  15.7 °C 30in /  1014.7hPa NE 14.1mph /  22.7km/h 26mph /  41.8km/h 38% 0in /  0.0mm
17:54 89.2 °F /  31.8 °C 60.3 °F /  15.7 °C 30in /  1014.6hPa NE 16.3mph /  26.2km/h 27.9mph /  44.9km/h 38% 0in /  0.0mm
17:59 88.9 °F /  31.6 °C 60.4 °F /  15.8 °C 30in /  1014.6hPa NE 16.5mph /  26.5km/h 28mph /  45.1km/h 38.5% 0in /  0.0mm
18:04 88.9 °F /  31.6 °C 60.6 °F /  15.9 °C 30in /  1014.6hPa NE 17mph /  27.4km/h 28mph /  45.1km/h 39% 0in /  0.0mm
18:09 88.7 °F /  31.5 °C 60.6 °F /  15.9 °C 30in /  1014.5hPa NE 16.7mph /  26.9km/h 27.6mph /  44.4km/h 39% 0in /  0.0mm
18:14 88.5 °F /  31.4 °C 60.4 °F /  15.8 °C 30in /  1014.5hPa NE 15.6mph /  25.1km/h 28mph /  45.1km/h 39.1% 0in /  0.0mm
18:19 88.5 °F /  31.4 °C 60.6 °F /  15.9 °C 30in /  1014.7hPa NE 15.4mph /  24.8km/h 25.6mph /  41.2km/h 39.1% 0in /  0.0mm
18:24 88.3 °F /  31.3 °C 61 °F /  16.1 °C 30in /  1014.7hPa NE 14.7mph /  23.7km/h 26mph /  41.8km/h 40% 0in /  0.0mm
18:29 88.3 °F /  31.3 °C 61 °F /  16.1 °C 30in /  1014.7hPa NE 14.5mph /  23.4km/h 23.5mph /  37.8km/h 40% 0in /  0.0mm
18:34 88.3 °F /  31.3 °C 61 °F /  16.1 °C 30in /  1014.7hPa NE 14mph /  22.5km/h 26.8mph /  43.1km/h 40% 0in /  0.0mm
18:39 88.2 °F /  31.2 °C 60.8 °F /  16 °C 30in /  1014.6hPa NE 13.9mph /  22.4km/h 27mph /  43.5km/h 40% 0in /  0.0mm
18:44 88.2 °F /  31.2 °C 60.8 °F /  16 °C 30in /  1014.6hPa NE 13.7mph /  22.1km/h 24.2mph /  38.9km/h 40% 0in /  0.0mm
18:49 88 °F /  31.1 °C 60.6 °F /  15.9 °C 30in /  1014.6hPa NE 13.7mph /  22.1km/h 24mph /  38.6km/h 40% 0in /  0.0mm
18:54 88 °F /  31.1 °C 60.8 °F /  16 °C 30in /  1014.6hPa NE 13.7mph /  22.1km/h 26.5mph /  42.6km/h 40.4% 0in /  0.0mm
18:59 87.6 °F /  30.9 °C 61 °F /  16.1 °C 30in /  1014.6hPa NE 13.9mph /  22.4km/h 26mph /  41.8km/h 40.9% 0in /  0.0mm
19:04 87.6 °F /  30.9 °C 61 °F /  16.1 °C 30in /  1014.6hPa NE 14.5mph /  23.3km/h 24mph /  38.6km/h 41% 0in /  0.0mm
19:09 87.8 °F /  31 °C 61.2 °F /  16.2 °C 30in /  1014.5hPa NE 13.8mph /  22.2km/h 22.3mph /  35.9km/h 41% 0in /  0.0mm
19:14 87.4 °F /  30.8 °C 60.8 °F /  16 °C 30in /  1014.5hPa NE 11.2mph /  18km/h 24.2mph /  38.9km/h 40.8% 0in /  0.0mm
19:19 87.3 °F /  30.7 °C 60.6 °F /  15.9 °C 30in /  1014.6hPa NE 12mph /  19.3km/h 25.3mph /  40.7km/h 41% 0in /  0.0mm
19:24 87.3 °F /  30.7 °C 60.6 °F /  15.9 °C 30in /  1014.6hPa NE 14.7mph /  23.7km/h 25mph /  40.2km/h 41% 0in /  0.0mm
19:29 87.3 °F /  30.7 °C 60.6 °F /  15.9 °C 30in /  1014.6hPa NE 14.1mph /  22.7km/h 23mph /  37km/h 41% 0in /  0.0mm
19:34 87.1 °F /  30.6 °C 60.4 °F /  15.8 °C 30in /  1014.7hPa NE 11.8mph /  19km/h 23mph /  37km/h 41% 0in /  0.0mm
19:39 87.1 °F /  30.6 °C 60.4 °F /  15.8 °C 30in /  1014.7hPa NE 11.7mph /  18.8km/h 21mph /  33.8km/h 41% 0in /  0.0mm
19:44 86.9 °F /  30.5 °C 60.4 °F /  15.8 °C 30in /  1014.7hPa NE 11.4mph /  18.4km/h 21.9mph /  35.2km/h 41% 0in /  0.0mm
19:49 86.5 °F /  30.3 °C 60.1 °F /  15.6 °C 30in /  1014.7hPa NE 11.7mph /  18.9km/h 22mph /  35.4km/h 41% 0in /  0.0mm
19:54 86.4 °F /  30.2 °C 60.4 °F /  15.8 °C 30in /  1014.7hPa NE 13mph /  20.9km/h 21mph /  33.8km/h 41.7% 0in /  0.0mm
19:59 86.4 °F /  30.2 °C 60.4 °F /  15.8 °C 30in /  1014.7hPa NE 12.9mph /  20.7km/h 21mph /  33.8km/h 42% 0in /  0.0mm
20:04 86.2 °F /  30.1 °C 60.3 °F /  15.7 °C 30in /  1014.7hPa NE 12.5mph /  20.1km/h 21.3mph /  34.3km/h 42% 0in /  0.0mm
20:09 85.8 °F /  29.9 °C 60.1 °F /  15.6 °C 30in /  1014.7hPa NE 12.3mph /  19.8km/h 21mph /  33.8km/h 42% 0in /  0.0mm
20:14 85.8 °F /  29.9 °C 60.1 °F /  15.6 °C 30in /  1014.7hPa NE 11.4mph /  18.4km/h 19.7mph /  31.7km/h 42% 0in /  0.0mm
20:19 85.8 °F /  29.9 °C 60.1 °F /  15.6 °C 30in /  1014.9hPa NE 11.2mph /  18.1km/h 20mph /  32.2km/h 42% 0in /  0.0mm
20:24 85.6 °F /  29.8 °C 59.9 °F /  15.5 °C 30in /  1014.9hPa ENE 10.7mph /  17.2km/h 19mph /  30.6km/h 42% 0in /  0.0mm
20:29 85.6 °F /  29.8 °C 59.9 °F /  15.5 °C 30in /  1014.9hPa NE 10.9mph /  17.6km/h 20.7mph /  33.3km/h 41.9% 0in /  0.0mm
20:34 85.3 °F /  29.6 °C 59.5 °F /  15.3 °C 30in /  1015.1hPa NE 11.8mph /  19km/h 21mph /  33.8km/h 42% 0in /  0.0mm
20:39 85.1 °F /  29.5 °C 59.4 °F /  15.2 °C 30in /  1015.1hPa NE 11.4mph /  18.4km/h 16mph /  25.7km/h 42% 0in /  0.0mm
20:44 84.9 °F /  29.4 °C 59.2 °F /  15.1 °C 30in /  1015.1hPa NE 10.2mph /  16.4km/h 21.3mph /  34.3km/h 42% 0in /  0.0mm
20:49 84.7 °F /  29.3 °C 59.2 °F /  15.1 °C 30in /  1015.2hPa NE 10.4mph /  16.8km/h 21mph /  33.8km/h 42% 0in /  0.0mm
20:54 84.6 °F /  29.2 °C 59.5 °F /  15.3 °C 30in /  1015.2hPa NE 11.4mph /  18.4km/h 19mph /  30.6km/h 42.9% 0in /  0.0mm
20:59 84.6 °F /  29.2 °C 59.5 °F /  15.3 °C 30in /  1015.2hPa NE 10.7mph /  17.2km/h 15mph /  24.1km/h 43% 0in /  0.0mm
21:04 84.4 °F /  29.1 °C 59.7 °F /  15.4 °C 30in /  1015.3hPa NE 8.5mph /  13.7km/h 15.2mph /  24.5km/h 43.4% 0in /  0.0mm
21:09 84.4 °F /  29.1 °C 60.1 °F /  15.6 °C 30in /  1015.3hPa NE 8.8mph /  14.1km/h 15mph /  24.1km/h 44% 0in /  0.0mm
21:14 84 °F /  28.9 °C 60.3 °F /  15.7 °C 30in /  1015.3hPa NE 9.7mph /  15.6km/h 14mph /  22.5km/h 44.6% 0in /  0.0mm
21:19 83.8 °F /  28.8 °C 60.3 °F /  15.7 °C 30in /  1015.3hPa NE 9.6mph /  15.4km/h 15mph /  24.1km/h 45% 0in /  0.0mm
21:24 83.7 °F /  28.7 °C 60.4 °F /  15.8 °C 30in /  1015.3hPa NE 9.2mph /  14.8km/h 15mph /  24.1km/h 45.5% 0in /  0.0mm
21:29 83.3 °F /  28.5 °C 60.4 °F /  15.8 °C 30in /  1015.3hPa NE 9.4mph /  15.1km/h 15.2mph /  24.5km/h 46% 0in /  0.0mm
21:34 83.1 °F /  28.4 °C 60.6 °F /  15.9 °C 30in /  1015.3hPa NE 10mph /  16.1km/h 16.3mph /  26.2km/h 46.8% 0in /  0.0mm
21:39 82.9 °F /  28.3 °C 60.6 °F /  15.9 °C 30in /  1015.3hPa NE 9.7mph /  15.6km/h 16mph /  25.7km/h 47% 0in /  0.0mm
21:44 82.8 °F /  28.2 °C 60.8 °F /  16 °C 30in /  1015.3hPa NE 8.7mph /  14km/h 13mph /  20.9km/h 47.5% 0in /  0.0mm
21:49 82.6 °F /  28.1 °C 61 °F /  16.1 °C 30in /  1015.3hPa NE 8.4mph /  13.6km/h 15mph /  24.1km/h 48% 0in /  0.0mm
21:54 82.4 °F /  28 °C 60.8 °F /  16 °C 30in /  1015.1hPa NE 7.6mph /  12.2km/h 15.2mph /  24.5km/h 48.3% 0in /  0.0mm
21:59 82 °F /  27.8 °C 61.2 °F /  16.2 °C 30in /  1015.1hPa NE 8.1mph /  13.1km/h 17.3mph /  27.8km/h 49% 0in /  0.0mm
22:04 82 °F /  27.8 °C 61 °F /  16.1 °C 30in /  1015.2hPa NE 9.7mph /  15.6km/h 17mph /  27.4km/h 49% 0in /  0.0mm
22:09 82 °F /  27.8 °C 61 °F /  16.1 °C 30in /  1015.2hPa NE 9.5mph /  15.3km/h 16.1mph /  25.9km/h 49% 0in /  0.0mm
22:14 81.9 °F /  27.7 °C 60.8 °F /  16 °C 30in /  1015.2hPa NE 8.7mph /  14km/h 16mph /  25.7km/h 49% 0in /  0.0mm
22:19 81.9 °F /  27.7 °C 60.8 °F /  16 °C 30in /  1015.2hPa NE 8.2mph /  13.2km/h 10.4mph /  16.7km/h 49% 0in /  0.0mm
22:24 81.5 °F /  27.5 °C 61 °F /  16.1 °C 30in /  1015.2hPa NE 6.2mph /  10km/h 10.4mph /  16.7km/h 49.8% 0in /  0.0mm
22:29 81.3 °F /  27.4 °C 61 °F /  16.1 °C 30in /  1015.2hPa NE 6.2mph /  10km/h 10mph /  16.1km/h 50% 0in /  0.0mm
22:34 81.1 °F /  27.3 °C 60.6 °F /  15.9 °C 30in /  1015.2hPa NE 6.4mph /  10.3km/h 9mph /  14.5km/h 50% 0in /  0.0mm
22:39 81 °F /  27.2 °C 60.6 °F /  15.9 °C 30in /  1015.2hPa NE 6.2mph /  10km/h 9mph /  14.5km/h 50% 0in /  0.0mm
22:44 81 °F /  27.2 °C 60.6 °F /  15.9 °C 30in /  1015.2hPa NE 5.4mph /  8.7km/h 9mph /  14.5km/h 50% 0in /  0.0mm
22:49 80.8 °F /  27.1 °C 60.4 °F /  15.8 °C 30in /  1015.4hPa NE 5.3mph /  8.6km/h 7mph /  11.3km/h 50% 0in /  0.0mm
22:54 80.8 °F /  27.1 °C 60.3 °F /  15.7 °C 30in /  1015.4hPa NE 5.2mph /  8.4km/h 7mph /  11.3km/h 50% 0in /  0.0mm
22:59 80.6 °F /  27 °C 60.3 °F /  15.7 °C 30in /  1015.4hPa NE 4.5mph /  7.3km/h 6mph /  9.7km/h 50% 0in /  0.0mm
23:04 80.8 °F /  27.1 °C 60.3 °F /  15.7 °C 30in /  1015.7hPa NE 2.4mph /  3.9km/h 4mph /  6.4km/h 50% 0in /  0.0mm
23:09 80.8 °F /  27.1 °C 60.3 °F /  15.7 °C 30in /  1015.7hPa NE 2.3mph /  3.7km/h 4.6mph /  7.4km/h 49.8% 0in /  0.0mm
23:14 81 °F /  27.2 °C 60.1 °F /  15.6 °C 30in /  1015.7hPa NE 1.8mph /  2.9km/h 5mph /  8km/h 49.2% 0in /  0.0mm
23:19 81 °F /  27.2 °C 60.1 °F /  15.6 °C 30in /  1015.9hPa NE 1.9mph /  3km/h 5mph /  8km/h 49.1% 0in /  0.0mm
23:24 81 °F /  27.2 °C 60.3 °F /  15.7 °C 30in /  1015.9hPa NE 2mph /  3.2km/h 4mph /  6.4km/h 49.5% 0in /  0.0mm
23:29 80.8 °F /  27.1 °C 60.4 °F /  15.8 °C 30in /  1015.9hPa ONO 2mph /  3.2km/h 5mph /  8km/h 50% 0in /  0.0mm
23:34 80.6 °F /  27 °C 60.3 °F /  15.7 °C 30in /  1016.0hPa ONO 1.8mph /  2.9km/h 5mph /  8km/h 50% 0in /  0.0mm
23:39 80.4 °F /  26.9 °C 60.1 °F /  15.6 °C 30in /  1016.0hPa ONO 1.9mph /  3km/h 5mph /  8km/h 50% 0in /  0.0mm
23:44 80.4 °F /  26.9 °C 60.4 °F /  15.8 °C 30in /  1016.0hPa ONO 2mph /  3.2km/h 4mph /  6.4km/h 50.5% 0in /  0.0mm
23:49 80.4 °F /  26.9 °C 60.6 °F /  15.9 °C 30in /  1016.2hPa ONO 2mph /  3.2km/h 4.6mph /  7.4km/h 51% 0in /  0.0mm
23:54 80.2 °F /  26.8 °C 60.4 °F /  15.8 °C 30in /  1016.2hPa ONO 2mph /  3.2km/h 5mph /  8km/h 51% 0in /  0.0mm
23:59 80.2 °F /  26.8 °C 60.8 °F /  16 °C 30in /  1016.2hPa ONO 2.1mph /  3.4km/h 5mph /  8km/h 51.6% 0in /  0.0mm
Murcia-Puente Tocinos, España
Compliments of Weather Underground - 3 mb

La estación de MeteoMurcia.com, publica sus datos en los siguientes proyectos:

Weather Underground PWS IMURCIAP2 Meteoclimatic www.awekas.at

W3Counter
Web Analytics